createdAt,value
2017-03-01T00:00:22.993Z,0
2017-03-01T00:01:22.602Z,0
2017-03-01T00:02:22.995Z,0
2017-03-01T00:03:22.590Z,0
2017-03-01T00:04:22.576Z,0
2017-03-01T00:05:22.938Z,0
2017-03-01T00:06:22.542Z,0
2017-03-01T00:07:22.526Z,0
2017-03-01T00:08:22.913Z,0
2017-03-01T00:09:22.502Z,0
2017-03-01T00:10:22.491Z,0
2017-03-01T00:11:22.867Z,0
2017-03-01T00:12:22.857Z,0
2017-03-01T00:13:22.856Z,0
2017-03-01T00:14:22.841Z,0
2017-03-01T00:15:22.823Z,0
2017-03-01T00:16:22.812Z,0
2017-03-01T00:17:22.809Z,0
2017-03-01T00:18:22.793Z,0
2017-03-01T00:19:22.777Z,0
2017-03-01T00:20:22.768Z,0
2017-03-01T00:21:22.731Z,0
2017-03-01T00:22:22.745Z,0
2017-03-01T00:23:22.747Z,0
2017-03-01T00:24:22.722Z,0
2017-03-01T00:25:22.713Z,0
2017-03-01T00:26:22.707Z,0
2017-03-01T00:27:22.688Z,0
2017-03-01T00:28:22.692Z,0
2017-03-01T00:29:22.282Z,0
2017-03-01T00:30:22.665Z,0
2017-03-01T00:31:22.663Z,0
2017-03-01T00:32:22.644Z,0
2017-03-01T00:33:22.637Z,0
2017-03-01T00:34:22.614Z,0
2017-03-01T00:35:22.605Z,0
2017-03-01T00:36:22.599Z,0
2017-03-01T00:37:22.619Z,0
2017-03-01T00:38:22.592Z,0
2017-03-01T00:39:22.558Z,0
2017-03-01T00:40:22.548Z,0
2017-03-01T00:41:22.159Z,0
2017-03-01T00:42:22.530Z,0
2017-03-01T00:43:22.516Z,0
2017-03-01T00:44:22.503Z,0
2017-03-01T00:45:22.508Z,0
2017-03-01T00:46:22.493Z,0
2017-03-01T00:47:22.482Z,0
2017-03-01T00:48:22.491Z,0
2017-03-01T00:49:22.477Z,0
2017-03-01T00:50:22.438Z,0
2017-03-01T00:51:22.429Z,0
2017-03-01T00:52:22.050Z,0
2017-03-01T00:53:22.425Z,0
2017-03-01T00:54:22.398Z,0
2017-03-01T00:55:22.393Z,0
2017-03-01T00:56:22.394Z,0
2017-03-01T00:57:22.379Z,0
2017-03-01T00:58:22.389Z,0
2017-03-01T00:59:22.373Z,0
2017-03-01T01:00:22.356Z,0
2017-03-01T01:01:22.334Z,0
2017-03-01T01:02:22.311Z,0
2017-03-01T01:03:22.318Z,0
2017-03-01T01:04:22.319Z,0
2017-03-01T01:05:22.278Z,0
2017-03-01T01:06:22.290Z,0
2017-03-01T01:07:22.279Z,0
2017-03-01T01:08:22.316Z,0
2017-03-01T01:09:22.251Z,0
2017-03-01T01:10:22.246Z,0
2017-03-01T01:11:22.213Z,0
2017-03-01T01:12:22.224Z,0
2017-03-01T01:13:22.192Z,0
2017-03-01T01:14:22.194Z,0
2017-03-01T01:15:22.170Z,0
2017-03-01T01:16:22.203Z,0
2017-03-01T01:17:22.162Z,0
2017-03-01T01:18:22.177Z,0
2017-03-01T01:19:22.132Z,0
2017-03-01T01:20:22.133Z,0
2017-03-01T01:21:22.127Z,0
2017-03-01T01:22:22.102Z,0
2017-03-01T01:23:22.088Z,0
2017-03-01T01:24:22.075Z,0
2017-03-01T01:25:22.068Z,0
2017-03-01T01:26:22.068Z,0
2017-03-01T01:27:22.042Z,0
2017-03-01T01:28:22.030Z,0
2017-03-01T01:29:22.029Z,0
2017-03-01T01:30:21.650Z,0
2017-03-01T01:31:21.999Z,0
2017-03-01T01:32:21.998Z,0
2017-03-01T01:33:21.979Z,0
2017-03-01T01:34:21.997Z,0
2017-03-01T01:35:21.594Z,0
2017-03-01T01:36:21.950Z,0
2017-03-01T01:37:21.946Z,0
2017-03-01T01:38:21.551Z,0
2017-03-01T01:39:21.913Z,0
2017-03-01T01:40:21.921Z,0
2017-03-01T01:41:21.924Z,0
2017-03-01T01:42:21.881Z,0
2017-03-01T01:43:21.879Z,0
2017-03-01T01:44:21.859Z,0
2017-03-01T01:45:21.845Z,0
2017-03-01T01:46:21.845Z,0
2017-03-01T01:47:21.843Z,0
2017-03-01T01:48:21.814Z,0
2017-03-01T01:49:21.825Z,0
2017-03-01T01:50:21.837Z,0
2017-03-01T01:51:21.784Z,0
2017-03-01T01:52:21.767Z,0
2017-03-01T01:53:21.770Z,0
2017-03-01T01:54:21.744Z,0
2017-03-01T01:55:21.740Z,0
2017-03-01T01:56:21.771Z,0
2017-03-01T01:57:21.754Z,0
2017-03-01T01:58:21.714Z,0
2017-03-01T01:59:21.699Z,0
2017-03-01T02:00:21.685Z,0
2017-03-01T02:01:21.670Z,0
2017-03-01T02:02:21.664Z,0
2017-03-01T02:03:21.657Z,0
2017-03-01T02:04:21.654Z,0
2017-03-01T02:05:21.627Z,0
2017-03-01T02:06:21.618Z,0
2017-03-01T02:07:21.600Z,0
2017-03-01T02:08:21.205Z,0
2017-03-01T02:09:21.585Z,0
2017-03-01T02:10:21.574Z,0
2017-03-01T02:11:21.582Z,0
2017-03-01T02:12:21.552Z,0
2017-03-01T02:13:21.563Z,0
2017-03-01T02:14:21.545Z,0
2017-03-01T02:15:21.524Z,0
2017-03-01T02:16:21.518Z,0
2017-03-01T02:17:21.517Z,0
2017-03-01T02:18:21.496Z,0
2017-03-01T02:19:21.092Z,0
2017-03-01T02:20:21.501Z,0
2017-03-01T02:21:21.464Z,0
2017-03-01T02:22:21.051Z,0
2017-03-01T02:23:21.428Z,0
2017-03-01T02:24:21.413Z,0
2017-03-01T02:25:21.021Z,0
2017-03-01T02:26:21.396Z,0
2017-03-01T02:27:21.388Z,0
2017-03-01T02:28:21.398Z,0
2017-03-01T02:29:21.373Z,0
2017-03-01T02:30:21.353Z,0
2017-03-01T02:31:21.353Z,0
2017-03-01T02:32:20.961Z,0
2017-03-01T02:33:20.934Z,0
2017-03-01T02:34:21.301Z,0
2017-03-01T02:35:21.296Z,0
2017-03-01T02:36:21.284Z,0
2017-03-01T02:37:20.890Z,0
2017-03-01T02:38:21.298Z,0
2017-03-01T02:39:21.252Z,0
2017-03-01T02:40:21.260Z,0
2017-03-01T02:41:21.223Z,0
2017-03-01T02:42:21.230Z,0
2017-03-01T02:43:21.212Z,0
2017-03-01T02:44:21.194Z,0
2017-03-01T02:45:21.183Z,0
2017-03-01T02:46:21.182Z,0
2017-03-01T02:47:21.160Z,0
2017-03-01T02:48:21.150Z,0
2017-03-01T02:49:21.147Z,0
2017-03-01T02:50:21.132Z,0
2017-03-01T02:51:21.114Z,0
2017-03-01T02:52:21.116Z,0
2017-03-01T02:53:20.737Z,0
2017-03-01T02:54:21.085Z,0
2017-03-01T02:55:21.068Z,0
2017-03-01T02:56:21.059Z,0
2017-03-01T02:57:21.060Z,0
2017-03-01T02:58:21.045Z,0
2017-03-01T02:59:21.080Z,0
2017-03-01T03:00:21.015Z,0
2017-03-01T03:01:21.053Z,0
2017-03-01T03:02:20.989Z,0
2017-03-01T03:03:20.985Z,0
2017-03-01T03:04:20.968Z,0
2017-03-01T03:05:20.956Z,0
2017-03-01T03:06:20.945Z,0
2017-03-01T03:07:20.943Z,0
2017-03-01T03:08:20.927Z,0
2017-03-01T03:09:20.916Z,0
2017-03-01T03:10:20.911Z,0
2017-03-01T03:11:20.900Z,0
2017-03-01T03:12:20.880Z,0
2017-03-01T03:13:20.869Z,0
2017-03-01T03:14:20.889Z,0
2017-03-01T03:15:20.860Z,0
2017-03-01T03:16:20.852Z,0
2017-03-01T03:17:20.847Z,0
2017-03-01T03:18:20.817Z,0
2017-03-01T03:19:20.831Z,0
2017-03-01T03:20:20.823Z,0
2017-03-01T03:21:20.779Z,0
2017-03-01T03:22:20.802Z,0
2017-03-01T03:23:20.755Z,0
2017-03-01T03:24:20.744Z,0
2017-03-01T03:25:20.763Z,0
2017-03-01T03:26:20.745Z,0
2017-03-01T03:27:20.710Z,0
2017-03-01T03:28:20.726Z,0
2017-03-01T03:29:20.683Z,0
2017-03-01T03:30:20.691Z,0
2017-03-01T03:31:20.675Z,0
2017-03-01T03:32:20.662Z,0
2017-03-01T03:33:20.635Z,0
2017-03-01T03:34:20.629Z,0
2017-03-01T03:35:20.613Z,0
2017-03-01T03:36:20.628Z,0
2017-03-01T03:37:20.590Z,0
2017-03-01T03:38:20.575Z,0
2017-03-01T03:39:20.569Z,0
2017-03-01T03:40:20.554Z,0
2017-03-01T03:41:20.543Z,0
2017-03-01T03:42:20.550Z,0
2017-03-01T03:43:20.529Z,0
2017-03-01T03:44:20.530Z,0
2017-03-01T03:45:20.516Z,0
2017-03-01T03:46:20.503Z,0
2017-03-01T03:47:20.490Z,0
2017-03-01T03:48:20.460Z,0
2017-03-01T03:49:20.470Z,0
2017-03-01T03:50:20.455Z,0
2017-03-01T03:51:20.450Z,0
2017-03-01T03:52:20.413Z,0
2017-03-01T03:53:20.395Z,0
2017-03-01T03:54:20.395Z,0
2017-03-01T03:55:20.369Z,0
2017-03-01T03:56:20.365Z,0
2017-03-01T03:57:20.347Z,0
2017-03-01T03:58:20.375Z,0
2017-03-01T03:59:20.327Z,0
2017-03-01T04:00:20.306Z,0
2017-03-01T04:01:20.297Z,0
2017-03-01T04:02:20.276Z,0
2017-03-01T04:03:20.272Z,0
2017-03-01T04:04:20.282Z,0
2017-03-01T04:05:20.279Z,0
2017-03-01T04:06:20.240Z,0
2017-03-01T04:07:20.220Z,0
2017-03-01T04:08:19.818Z,0
2017-03-01T04:09:20.213Z,0
2017-03-01T04:10:20.185Z,0
2017-03-01T04:11:20.165Z,0
2017-03-01T04:12:20.153Z,0
2017-03-01T04:13:20.141Z,0
2017-03-01T04:14:20.150Z,0
2017-03-01T04:15:20.147Z,0
2017-03-01T04:16:20.100Z,0
2017-03-01T04:17:19.713Z,0
2017-03-01T04:18:20.078Z,0
2017-03-01T04:19:20.066Z,0
2017-03-01T04:20:20.047Z,0
2017-03-01T04:21:20.042Z,0
2017-03-01T04:22:20.039Z,0
2017-03-01T04:23:20.008Z,0
2017-03-01T04:24:19.609Z,0
2017-03-01T04:25:19.981Z,0
2017-03-01T04:26:19.968Z,0
2017-03-01T04:27:19.956Z,0
2017-03-01T04:28:19.941Z,0
2017-03-01T04:29:19.956Z,0
2017-03-01T04:30:19.938Z,0
2017-03-01T04:31:19.527Z,0
2017-03-01T04:32:19.889Z,0
2017-03-01T04:33:19.916Z,0
2017-03-01T04:34:19.888Z,0
2017-03-01T04:35:19.850Z,0
2017-03-01T04:36:19.841Z,0
2017-03-01T04:37:19.840Z,0
2017-03-01T04:38:19.834Z,0
2017-03-01T04:39:19.798Z,0
2017-03-01T04:40:19.791Z,0
2017-03-01T04:41:19.771Z,0
2017-03-01T04:42:19.372Z,0
2017-03-01T04:43:19.742Z,0
2017-03-01T04:44:19.745Z,0
2017-03-01T04:45:19.723Z,0
2017-03-01T04:46:19.345Z,0
2017-03-01T04:47:19.688Z,0
2017-03-01T04:48:19.311Z,0
2017-03-01T04:49:19.678Z,0
2017-03-01T04:50:19.645Z,0
2017-03-01T04:51:19.268Z,0
2017-03-01T04:52:19.245Z,0
2017-03-01T04:53:19.615Z,0
2017-03-01T04:54:19.619Z,0
2017-03-01T04:55:18.808Z,0
2017-03-01T04:56:19.203Z,0
2017-03-01T04:57:19.555Z,0
2017-03-01T04:58:19.555Z,0
2017-03-01T04:59:19.144Z,0
2017-03-01T05:00:19.138Z,0
2017-03-01T05:01:18.753Z,0
2017-03-01T05:02:19.121Z,0
2017-03-01T05:03:19.526Z,0
2017-03-01T05:04:19.460Z,0
2017-03-01T05:05:19.457Z,0
2017-03-01T05:06:19.070Z,0
2017-03-01T05:07:19.462Z,0
2017-03-01T05:08:19.449Z,0
2017-03-01T05:09:19.408Z,0
2017-03-01T05:10:19.413Z,0
2017-03-01T05:11:19.377Z,0
2017-03-01T05:12:19.351Z,0
2017-03-01T05:13:19.335Z,0
2017-03-01T05:14:19.324Z,0
2017-03-01T05:15:19.312Z,0
2017-03-01T05:16:19.324Z,0
2017-03-01T05:17:19.299Z,0
2017-03-01T05:18:18.887Z,4
2017-03-01T05:19:19.257Z,4
2017-03-01T05:20:19.240Z,4
2017-03-01T05:21:19.241Z,4
2017-03-01T05:22:19.208Z,4
2017-03-01T05:23:19.204Z,4
2017-03-01T05:24:19.211Z,4
2017-03-01T05:25:19.168Z,8
2017-03-01T05:26:19.172Z,8
2017-03-01T05:27:19.408Z,12
2017-03-01T05:28:19.128Z,12
2017-03-01T05:29:19.118Z,16
2017-03-01T05:30:19.102Z,16
2017-03-01T05:31:19.089Z,16
2017-03-01T05:32:19.084Z,24
2017-03-01T05:33:19.069Z,24
2017-03-01T05:34:19.061Z,32
2017-03-01T05:35:19.038Z,36
2017-03-01T05:36:19.036Z,44
2017-03-01T05:37:19.015Z,52
2017-03-01T05:38:19.026Z,60
2017-03-01T05:39:19.010Z,72
2017-03-01T05:40:18.990Z,80
2017-03-01T05:41:18.979Z,96
2017-03-01T05:42:18.939Z,104
2017-03-01T05:43:18.968Z,120
2017-03-01T05:44:18.905Z,136
2017-03-01T05:45:18.901Z,152
2017-03-01T05:46:18.910Z,168
2017-03-01T05:47:18.481Z,188
2017-03-01T05:48:18.848Z,212
2017-03-01T05:49:18.860Z,232
2017-03-01T05:50:18.826Z,256
2017-03-01T05:51:18.808Z,280
2017-03-01T05:52:18.811Z,308
2017-03-01T05:53:18.782Z,336
2017-03-01T05:54:18.391Z,368
2017-03-01T05:55:18.766Z,404
2017-03-01T05:56:18.765Z,444
2017-03-01T05:57:18.733Z,492
2017-03-01T05:58:18.711Z,544
2017-03-01T05:59:18.719Z,608
2017-03-01T06:00:18.692Z,692
2017-03-01T06:01:18.677Z,776
2017-03-01T06:02:18.672Z,880
2017-03-01T06:03:18.663Z,984
2017-03-01T06:04:18.641Z,1096
2017-03-01T06:05:18.618Z,1228
2017-03-01T06:06:18.610Z,1376
2017-03-01T06:07:18.224Z,1536
2017-03-01T06:08:18.583Z,1724
2017-03-01T06:09:18.583Z,1940
2017-03-01T06:10:18.194Z,2132
2017-03-01T06:11:18.558Z,2300
2017-03-01T06:12:18.515Z,2460
2017-03-01T06:13:18.511Z,2624
2017-03-01T06:14:18.525Z,2736
2017-03-01T06:15:18.504Z,2836
2017-03-01T06:16:18.465Z,2920
2017-03-01T06:17:18.477Z,2984
2017-03-01T06:18:18.447Z,3004
2017-03-01T06:19:18.447Z,2988
2017-03-01T06:20:18.435Z,3008
2017-03-01T06:21:18.424Z,3180
2017-03-01T06:22:18.379Z,3460
2017-03-01T06:23:18.367Z,3700
2017-03-01T06:24:18.384Z,3824
2017-03-01T06:25:18.344Z,3824
2017-03-01T06:26:18.360Z,3888
2017-03-01T06:27:18.316Z,4004
2017-03-01T06:28:18.314Z,4156
2017-03-01T06:29:18.313Z,4132
2017-03-01T06:30:18.279Z,4080
2017-03-01T06:31:18.295Z,4132
2017-03-01T06:32:18.254Z,3956
2017-03-01T06:33:18.560Z,3900
2017-03-01T06:34:18.247Z,3868
2017-03-01T06:35:18.246Z,3852
2017-03-01T06:36:18.228Z,3924
2017-03-01T06:37:18.198Z,4060
2017-03-01T06:38:18.219Z,4216
2017-03-01T06:39:18.183Z,4340
2017-03-01T06:40:18.177Z,4368
2017-03-01T06:41:18.149Z,4320
2017-03-01T06:42:17.793Z,4244
2017-03-01T06:43:18.159Z,4308
2017-03-01T06:44:18.123Z,4564
2017-03-01T06:45:18.115Z,4944
2017-03-01T06:46:18.107Z,5324
2017-03-01T06:47:18.089Z,5604
2017-03-01T06:48:18.075Z,5668
2017-03-01T06:49:18.070Z,5664
2017-03-01T06:50:18.058Z,5656
2017-03-01T06:51:18.058Z,5552
2017-03-01T06:52:18.027Z,5372
2017-03-01T06:53:18.037Z,5136
2017-03-01T06:54:18.029Z,4892
2017-03-01T06:55:18.028Z,4676
2017-03-01T06:56:17.996Z,4504
2017-03-01T06:57:17.974Z,4368
2017-03-01T06:58:17.967Z,4244
2017-03-01T06:59:17.954Z,4096
2017-03-01T07:00:17.966Z,3892
2017-03-01T07:01:17.944Z,3712
2017-03-01T07:02:17.932Z,3536
2017-03-01T07:03:17.911Z,3348
2017-03-01T07:04:17.912Z,3192
2017-03-01T07:05:17.895Z,3044
2017-03-01T07:06:17.880Z,2916
2017-03-01T07:07:17.877Z,2844
2017-03-01T07:08:17.856Z,2820
2017-03-01T07:09:17.870Z,2816
2017-03-01T07:10:17.842Z,2824
2017-03-01T07:11:17.844Z,2840
2017-03-01T07:12:17.820Z,2872
2017-03-01T07:13:17.828Z,2876
2017-03-01T07:14:17.410Z,2964
2017-03-01T07:15:17.791Z,3064
2017-03-01T07:16:17.778Z,3208
2017-03-01T07:17:17.403Z,3364
2017-03-01T07:18:17.370Z,3520
2017-03-01T07:19:17.743Z,3556
2017-03-01T07:20:17.350Z,3656
2017-03-01T07:21:17.760Z,3744
2017-03-01T07:22:17.743Z,3812
2017-03-01T07:23:17.707Z,3952
2017-03-01T07:24:17.688Z,4012
2017-03-01T07:25:17.681Z,4016
2017-03-01T07:26:17.304Z,4072
2017-03-01T07:27:17.667Z,4300
2017-03-01T07:28:17.645Z,4380
2017-03-01T07:29:17.632Z,4592
2017-03-01T07:30:17.662Z,4568
2017-03-01T07:31:17.615Z,4788
2017-03-01T07:32:17.603Z,5312
2017-03-01T07:33:17.211Z,5412
2017-03-01T07:34:17.199Z,5608
2017-03-01T07:35:17.568Z,6156
2017-03-01T07:36:17.574Z,6440
2017-03-01T07:37:17.181Z,6476
2017-03-01T07:38:17.565Z,7336
2017-03-01T07:39:17.541Z,8160
2017-03-01T07:40:17.514Z,6880
2017-03-01T07:41:17.507Z,6596
2017-03-01T07:42:17.492Z,8248
2017-03-01T07:43:17.104Z,8848
2017-03-01T07:44:17.118Z,7256
2017-03-01T07:45:17.084Z,8608
2017-03-01T07:46:17.062Z,8068
2017-03-01T07:47:17.055Z,9048
2017-03-01T07:48:17.442Z,11300
2017-03-01T07:49:16.653Z,10884
2017-03-01T07:50:17.426Z,10384
2017-03-01T07:51:17.411Z,9100
2017-03-01T07:52:17.405Z,8232
2017-03-01T07:53:17.400Z,8352
2017-03-01T07:54:17.371Z,10776
2017-03-01T07:55:17.359Z,8480
2017-03-01T07:56:17.356Z,7120
2017-03-01T07:57:17.362Z,8208
2017-03-01T07:58:17.333Z,8812
2017-03-01T07:59:17.327Z,11772
2017-03-01T08:00:17.321Z,9956
2017-03-01T08:01:17.311Z,8476
2017-03-01T08:02:17.300Z,9816
2017-03-01T08:03:17.307Z,9476
2017-03-01T08:04:17.303Z,9568
2017-03-01T08:05:17.265Z,9412
2017-03-01T08:06:17.275Z,9064
2017-03-01T08:07:17.261Z,8072
2017-03-01T08:08:17.235Z,7844
2017-03-01T08:09:17.271Z,7972
2017-03-01T08:10:17.244Z,9024
2017-03-01T08:11:17.240Z,7556
2017-03-01T08:12:17.209Z,9116
2017-03-01T08:13:17.199Z,8612
2017-03-01T08:14:17.222Z,9168
2017-03-01T08:15:17.178Z,8024
2017-03-01T08:16:17.176Z,7920
2017-03-01T08:17:17.173Z,6776
2017-03-01T08:18:16.762Z,7280
2017-03-01T08:19:17.136Z,7084
2017-03-01T08:20:17.403Z,8156
2017-03-01T08:21:17.117Z,7588
2017-03-01T08:22:16.730Z,8164
2017-03-01T08:23:17.107Z,6600
2017-03-01T08:24:17.119Z,6692
2017-03-01T08:25:16.699Z,10184
2017-03-01T08:26:17.073Z,13344
2017-03-01T08:27:16.677Z,11356
2017-03-01T08:28:17.052Z,11728
2017-03-01T08:29:17.055Z,8156
2017-03-01T08:30:16.656Z,6900
2017-03-01T08:31:17.052Z,8816
2017-03-01T08:32:17.061Z,7724
2017-03-01T08:33:17.009Z,9600
2017-03-01T08:34:17.000Z,14456
2017-03-01T08:35:16.989Z,17664
2017-03-01T08:36:16.986Z,13020
2017-03-01T08:37:16.988Z,10516
2017-03-01T08:38:16.584Z,10972
2017-03-01T08:39:16.962Z,8076
2017-03-01T08:40:16.948Z,8532
2017-03-01T08:41:16.940Z,8912
2017-03-01T08:42:16.951Z,12920
2017-03-01T08:43:16.914Z,12868
2017-03-01T08:44:16.918Z,15356
2017-03-01T08:45:16.911Z,16160
2017-03-01T08:46:16.907Z,17216
2017-03-01T08:47:16.883Z,12876
2017-03-01T08:48:16.880Z,11540
2017-03-01T08:49:16.866Z,13484
2017-03-01T08:50:16.871Z,16448
2017-03-01T08:51:16.861Z,16832
2017-03-01T08:52:16.856Z,17408
2017-03-01T08:53:16.828Z,15488
2017-03-01T08:54:16.821Z,15364
2017-03-01T08:55:16.822Z,12684
2017-03-01T08:56:16.440Z,11436
2017-03-01T08:57:16.827Z,10912
2017-03-01T08:58:16.786Z,10148
2017-03-01T08:59:16.797Z,9028
2017-03-01T09:00:16.773Z,7764
2017-03-01T09:01:16.764Z,9148
2017-03-01T09:02:16.812Z,9984
2017-03-01T09:03:16.747Z,12084
2017-03-01T09:04:16.756Z,11844
2017-03-01T09:05:16.734Z,12948
2017-03-01T09:06:16.725Z,10588
2017-03-01T09:07:16.718Z,7836
2017-03-01T09:08:16.709Z,8520
2017-03-01T09:09:16.705Z,6608
2017-03-01T09:10:16.982Z,6276
2017-03-01T09:11:16.693Z,6200
2017-03-01T09:12:16.686Z,5860
2017-03-01T09:13:16.674Z,6128
2017-03-01T09:14:16.676Z,6336
2017-03-01T09:15:16.649Z,9016
2017-03-01T09:16:16.680Z,10588
2017-03-01T09:17:16.634Z,7528
2017-03-01T09:18:16.675Z,6644
2017-03-01T09:19:16.655Z,6468
2017-03-01T09:20:16.613Z,7128
2017-03-01T09:21:16.213Z,6852
2017-03-01T09:22:16.592Z,7764
2017-03-01T09:23:16.601Z,7104
2017-03-01T09:24:16.217Z,6888
2017-03-01T09:25:16.570Z,7280
2017-03-01T09:26:16.571Z,5996
2017-03-01T09:27:16.560Z,6624
2017-03-01T09:28:16.157Z,6804
2017-03-01T09:29:16.156Z,7452
2017-03-01T09:30:16.159Z,7240
2017-03-01T09:31:16.519Z,9244
2017-03-01T09:32:16.522Z,8592
2017-03-01T09:33:16.546Z,9556
2017-03-01T09:34:16.493Z,11616
2017-03-01T09:35:16.513Z,15264
2017-03-01T09:36:16.490Z,15372
2017-03-01T09:37:16.491Z,14904
2017-03-01T09:38:16.072Z,12200
2017-03-01T09:39:16.449Z,10872
2017-03-01T09:40:16.442Z,8692
2017-03-01T09:41:16.431Z,8004
2017-03-01T09:42:16.426Z,8688
2017-03-01T09:43:16.434Z,8300
2017-03-01T09:44:16.424Z,8872
2017-03-01T09:45:16.405Z,8276
2017-03-01T09:46:16.392Z,8420
2017-03-01T09:47:16.404Z,8804
2017-03-01T09:48:16.400Z,8488
2017-03-01T09:49:16.366Z,8304
2017-03-01T09:50:16.378Z,8620
2017-03-01T09:51:16.354Z,9236
2017-03-01T09:52:16.370Z,9272
2017-03-01T09:53:16.340Z,9320
2017-03-01T09:54:16.331Z,9764
2017-03-01T09:55:16.327Z,9708
2017-03-01T09:56:16.307Z,10568
2017-03-01T09:57:16.327Z,11832
2017-03-01T09:58:16.307Z,10872
2017-03-01T09:59:16.295Z,11024
2017-03-01T10:00:16.308Z,13272
2017-03-01T10:01:16.286Z,13660
2017-03-01T10:02:16.268Z,14036
2017-03-01T10:03:16.260Z,13092
2017-03-01T10:04:15.866Z,12392
2017-03-01T10:05:16.254Z,12348
2017-03-01T10:06:16.227Z,11472
2017-03-01T10:07:16.223Z,11280
2017-03-01T10:08:16.209Z,11524
2017-03-01T10:09:16.208Z,11024
2017-03-01T10:10:16.211Z,11828
2017-03-01T10:11:16.191Z,13988
2017-03-01T10:12:16.195Z,14112
2017-03-01T10:13:16.175Z,13204
2017-03-01T10:14:16.177Z,11684
2017-03-01T10:15:16.158Z,11336
2017-03-01T10:16:16.181Z,11080
2017-03-01T10:17:16.174Z,10628
2017-03-01T10:18:16.162Z,11032
2017-03-01T10:19:16.136Z,11640
2017-03-01T10:20:16.149Z,11260
2017-03-01T10:21:16.131Z,11424
2017-03-01T10:22:16.102Z,13412
2017-03-01T10:23:16.121Z,14456
2017-03-01T10:24:16.089Z,12644
2017-03-01T10:25:16.086Z,12116
2017-03-01T10:26:16.111Z,11116
2017-03-01T10:27:16.100Z,12360
2017-03-01T10:28:16.064Z,12928
2017-03-01T10:29:16.310Z,13784
2017-03-01T10:30:15.674Z,12764
2017-03-01T10:31:16.049Z,10464
2017-03-01T10:32:16.043Z,9284
2017-03-01T10:33:16.048Z,10156
2017-03-01T10:34:16.038Z,9668
2017-03-01T10:35:16.067Z,8168
2017-03-01T10:36:16.046Z,10684
2017-03-01T10:37:16.004Z,12008
2017-03-01T10:38:16.014Z,9452
2017-03-01T10:39:16.000Z,8872
2017-03-01T10:40:15.985Z,8664
2017-03-01T10:41:15.977Z,9816
2017-03-01T10:42:15.983Z,9872
2017-03-01T10:43:15.967Z,9080
2017-03-01T10:44:15.981Z,9536
2017-03-01T10:45:15.989Z,10612
2017-03-01T10:46:15.562Z,10520
2017-03-01T10:47:15.969Z,10540
2017-03-01T10:48:15.947Z,12664
2017-03-01T10:49:15.925Z,13068
2017-03-01T10:50:15.918Z,12232
2017-03-01T10:51:15.926Z,13968
2017-03-01T10:52:15.930Z,12840
2017-03-01T10:53:15.912Z,11828
2017-03-01T10:54:15.891Z,11528
2017-03-01T10:55:15.892Z,14224
2017-03-01T10:56:15.882Z,13544
2017-03-01T10:57:15.485Z,10020
2017-03-01T10:58:15.480Z,9824
2017-03-01T10:59:15.476Z,11820
2017-03-01T11:00:15.860Z,11028
2017-03-01T11:01:15.467Z,10480
2017-03-01T11:02:15.842Z,10028
2017-03-01T11:03:15.454Z,10160
2017-03-01T11:04:15.689Z,7352
2017-03-01T11:05:15.439Z,6212
2017-03-01T11:06:15.429Z,6112
2017-03-01T11:07:15.815Z,4996
2017-03-01T11:08:15.038Z,5080
2017-03-01T11:09:15.416Z,4916
2017-03-01T11:10:15.791Z,4936
2017-03-01T11:11:15.786Z,5120
2017-03-01T11:12:15.786Z,4668
2017-03-01T11:13:15.778Z,6712
2017-03-01T11:14:15.384Z,7888
2017-03-01T11:15:15.824Z,8640
2017-03-01T11:16:15.757Z,7632
2017-03-01T11:17:15.387Z,6852
2017-03-01T11:18:15.754Z,6800
2017-03-01T11:19:15.760Z,5300
2017-03-01T11:20:15.736Z,5668
2017-03-01T11:21:15.339Z,5896
2017-03-01T11:22:15.347Z,6336
2017-03-01T11:23:15.328Z,6384
2017-03-01T11:24:15.318Z,5412
2017-03-01T11:25:15.316Z,5432
2017-03-01T11:26:15.301Z,4780
2017-03-01T11:27:15.310Z,4812
2017-03-01T11:28:15.318Z,4892
2017-03-01T11:29:15.293Z,4180
2017-03-01T11:30:15.274Z,3476
2017-03-01T11:31:15.688Z,3036
2017-03-01T11:32:15.644Z,4448
2017-03-01T11:33:15.259Z,5200
2017-03-01T11:34:15.643Z,4812
2017-03-01T11:35:15.624Z,5528
2017-03-01T11:36:15.618Z,4880
2017-03-01T11:37:15.627Z,4348
2017-03-01T11:38:15.622Z,4304
2017-03-01T11:39:15.612Z,4148
2017-03-01T11:40:15.203Z,3648
2017-03-01T11:41:15.606Z,3452
2017-03-01T11:42:15.576Z,3508
2017-03-01T11:43:15.571Z,3264
2017-03-01T11:44:15.562Z,4044
2017-03-01T11:45:15.564Z,4368
2017-03-01T11:46:15.558Z,4832
2017-03-01T11:47:15.541Z,4576
2017-03-01T11:48:15.545Z,4704
2017-03-01T11:49:15.520Z,4428
2017-03-01T11:50:15.549Z,5172
2017-03-01T11:51:15.511Z,5312
2017-03-01T11:52:15.511Z,5904
2017-03-01T11:53:15.499Z,6300
2017-03-01T11:54:15.483Z,5648
2017-03-01T11:55:15.091Z,5008
2017-03-01T11:56:15.468Z,4800
2017-03-01T11:57:15.460Z,5644
2017-03-01T11:58:15.470Z,6564
2017-03-01T11:59:15.449Z,7328
2017-03-01T12:00:15.452Z,7444
2017-03-01T12:01:15.430Z,7036
2017-03-01T12:02:15.428Z,8060
2017-03-01T12:03:15.425Z,7868
2017-03-01T12:04:15.403Z,7016
2017-03-01T12:05:15.412Z,7764
2017-03-01T12:06:15.390Z,7012
2017-03-01T12:07:15.382Z,6928
2017-03-01T12:08:15.371Z,7644
2017-03-01T12:09:15.372Z,8276
2017-03-01T12:10:15.381Z,9256
2017-03-01T12:11:15.352Z,9328
2017-03-01T12:12:14.995Z,10324
2017-03-01T12:13:15.362Z,10280
2017-03-01T12:14:14.942Z,11176
2017-03-01T12:15:15.310Z,11464
2017-03-01T12:16:15.305Z,10888
2017-03-01T12:17:15.308Z,10020
2017-03-01T12:18:15.293Z,8820
2017-03-01T12:19:15.303Z,7868
2017-03-01T12:20:15.294Z,6992
2017-03-01T12:21:15.269Z,6012
2017-03-01T12:22:14.873Z,5456
2017-03-01T12:23:15.259Z,5164
2017-03-01T12:24:15.264Z,4588
2017-03-01T12:25:15.250Z,4360
2017-03-01T12:26:15.222Z,6400
2017-03-01T12:27:15.213Z,6140
2017-03-01T12:28:14.823Z,4508
2017-03-01T12:29:14.843Z,4272
2017-03-01T12:30:15.208Z,4400
2017-03-01T12:31:15.191Z,5024
2017-03-01T12:32:15.185Z,5232
2017-03-01T12:33:15.183Z,6568
2017-03-01T12:34:15.169Z,10616
2017-03-01T12:35:15.171Z,7988
2017-03-01T12:36:15.150Z,7588
2017-03-01T12:37:15.131Z,5720
2017-03-01T12:38:15.131Z,4864
2017-03-01T12:39:15.119Z,5560
2017-03-01T12:40:15.106Z,6108
2017-03-01T12:41:15.098Z,9948
2017-03-01T12:42:15.093Z,12008
2017-03-01T12:43:15.084Z,14304
2017-03-01T12:44:15.084Z,12904
2017-03-01T12:45:15.076Z,11888
2017-03-01T12:46:15.061Z,11096
2017-03-01T12:47:15.076Z,12732
2017-03-01T12:48:15.049Z,11520
2017-03-01T12:49:15.037Z,10204
2017-03-01T12:50:14.655Z,12328
2017-03-01T12:51:14.652Z,12840
2017-03-01T12:52:15.030Z,12596
2017-03-01T12:53:15.012Z,10812
2017-03-01T12:54:15.002Z,10412
2017-03-01T12:55:15.012Z,10128
2017-03-01T12:56:14.976Z,9624
2017-03-01T12:57:14.578Z,9372
2017-03-01T12:58:14.594Z,11944
2017-03-01T12:59:14.947Z,12180
2017-03-01T13:00:14.977Z,9476
2017-03-01T13:01:14.549Z,7608
2017-03-01T13:02:14.935Z,6688
2017-03-01T13:03:14.935Z,6168
2017-03-01T13:04:14.534Z,6840
2017-03-01T13:05:14.525Z,7984
2017-03-01T13:06:14.530Z,7120
2017-03-01T13:07:14.889Z,6536
2017-03-01T13:08:14.881Z,5996
2017-03-01T13:09:14.873Z,5364
2017-03-01T13:10:14.117Z,4588
2017-03-01T13:11:14.886Z,3976
2017-03-01T13:12:14.848Z,4212
2017-03-01T13:13:14.843Z,3876
2017-03-01T13:14:14.848Z,3724
2017-03-01T13:15:14.850Z,4492
2017-03-01T13:16:14.845Z,4776
2017-03-01T13:17:14.434Z,5040
2017-03-01T13:18:14.823Z,5280
2017-03-01T13:19:14.795Z,5612
2017-03-01T13:20:14.805Z,5928
2017-03-01T13:21:14.794Z,5536
2017-03-01T13:22:14.383Z,5332
2017-03-01T13:23:14.379Z,5084
2017-03-01T13:24:14.374Z,5148
2017-03-01T13:25:14.358Z,5516
2017-03-01T13:26:14.362Z,5648
2017-03-01T13:27:14.738Z,6328
2017-03-01T13:28:14.339Z,8548
2017-03-01T13:29:14.338Z,8616
2017-03-01T13:30:13.947Z,8880
2017-03-01T13:31:14.704Z,8824
2017-03-01T13:32:14.705Z,7368
2017-03-01T13:33:14.725Z,6168
2017-03-01T13:34:14.680Z,6384
2017-03-01T13:35:14.289Z,6248
2017-03-01T13:36:13.925Z,6576
2017-03-01T13:37:14.668Z,7004
2017-03-01T13:38:14.262Z,7680
2017-03-01T13:39:14.635Z,7772
2017-03-01T13:40:14.258Z,7896
2017-03-01T13:41:14.239Z,8368
2017-03-01T13:42:14.225Z,8904
2017-03-01T13:43:14.229Z,8164
2017-03-01T13:44:14.235Z,7068
2017-03-01T13:45:13.455Z,6384
2017-03-01T13:46:14.584Z,5980
2017-03-01T13:47:14.578Z,4572
2017-03-01T13:48:14.196Z,4448